sensor_id;sensor_type;location;lat;lon;timestamp;P1;durP1;ratioP1;P2;durP2;ratioP2
67869;SDS011;54673;52.262;6.830;2023-12-14T00:00:43;19.30;;;7.67;;
67869;SDS011;54673;52.262;6.830;2023-12-14T00:03:08;20.70;;;8.60;;
67869;SDS011;54673;52.262;6.830;2023-12-14T00:05:34;19.07;;;8.47;;
67869;SDS011;54673;52.262;6.830;2023-12-14T00:08:00;22.40;;;8.90;;
67869;SDS011;54673;52.262;6.830;2023-12-14T00:10:26;17.07;;;6.63;;
67869;SDS011;54673;52.262;6.830;2023-12-14T00:12:51;17.77;;;7.10;;
67869;SDS011;54673;52.262;6.830;2023-12-14T00:15:18;18.75;;;7.93;;
67869;SDS011;54673;52.262;6.830;2023-12-14T00:17:46;22.65;;;8.93;;
67869;SDS011;54673;52.262;6.830;2023-12-14T00:20:12;20.13;;;8.20;;
67869;SDS011;54673;52.262;6.830;2023-12-14T00:22:39;20.63;;;8.82;;
67869;SDS011;54673;52.262;6.830;2023-12-14T00:25:05;20.30;;;8.87;;
67869;SDS011;54673;52.262;6.830;2023-12-14T00:27:31;19.05;;;7.70;;
67869;SDS011;54673;52.262;6.830;2023-12-14T00:29:56;21.57;;;8.63;;
67869;SDS011;54673;52.262;6.830;2023-12-14T00:32:22;21.20;;;8.20;;
67869;SDS011;54673;52.262;6.830;2023-12-14T00:34:47;16.17;;;7.33;;
67869;SDS011;54673;52.262;6.830;2023-12-14T00:37:13;19.25;;;8.85;;
67869;SDS011;54673;52.262;6.830;2023-12-14T00:39:39;20.02;;;8.27;;
67869;SDS011;54673;52.262;6.830;2023-12-14T00:42:05;16.97;;;7.23;;
67869;SDS011;54673;52.262;6.830;2023-12-14T00:44:31;18.45;;;8.55;;
67869;SDS011;54673;52.262;6.830;2023-12-14T00:46:56;20.43;;;8.07;;
67869;SDS011;54673;52.262;6.830;2023-12-14T00:49:23;20.48;;;8.05;;
67869;SDS011;54673;52.262;6.830;2023-12-14T00:51:49;17.53;;;7.47;;
67869;SDS011;54673;52.262;6.830;2023-12-14T00:54:14;19.03;;;8.40;;
67869;SDS011;54673;52.262;6.830;2023-12-14T00:56:40;20.77;;;7.32;;
67869;SDS011;54673;52.262;6.830;2023-12-14T00:59:05;20.87;;;8.80;;
67869;SDS011;54673;52.262;6.830;2023-12-14T01:01:31;16.38;;;7.63;;
67869;SDS011;54673;52.262;6.830;2023-12-14T01:03:57;17.53;;;7.83;;
67869;SDS011;54673;52.262;6.830;2023-12-14T01:06:24;16.38;;;7.28;;
67869;SDS011;54673;52.262;6.830;2023-12-14T01:08:50;17.07;;;8.43;;
67869;SDS011;54673;52.262;6.830;2023-12-14T01:11:15;15.20;;;6.97;;
67869;SDS011;54673;52.262;6.830;2023-12-14T01:13:41;19.02;;;8.55;;
67869;SDS011;54673;52.262;6.830;2023-12-14T01:16:06;17.77;;;7.30;;
67869;SDS011;54673;52.262;6.830;2023-12-14T01:18:32;10.13;;;4.32;;
67869;SDS011;54673;52.262;6.830;2023-12-14T01:20:58;21.90;;;9.00;;
67869;SDS011;54673;52.262;6.830;2023-12-14T01:23:23;19.40;;;8.63;;
67869;SDS011;54673;52.262;6.830;2023-12-14T01:25:49;19.85;;;9.10;;
67869;SDS011;54673;52.262;6.830;2023-12-14T01:28:14;20.00;;;8.77;;
67869;SDS011;54673;52.262;6.830;2023-12-14T01:30:40;16.75;;;7.07;;
67869;SDS011;54673;52.262;6.830;2023-12-14T01:33:05;19.20;;;7.63;;
67869;SDS011;54673;52.262;6.830;2023-12-14T01:35:31;18.33;;;8.07;;
67869;SDS011;54673;52.262;6.830;2023-12-14T01:37:57;20.10;;;8.65;;
67869;SDS011;54673;52.262;6.830;2023-12-14T01:40:22;18.93;;;6.63;;
67869;SDS011;54673;52.262;6.830;2023-12-14T01:42:48;19.00;;;7.37;;
67869;SDS011;54673;52.262;6.830;2023-12-14T01:45:13;18.10;;;8.00;;
67869;SDS011;54673;52.262;6.830;2023-12-14T01:47:42;19.53;;;7.43;;
67869;SDS011;54673;52.262;6.830;2023-12-14T01:50:08;17.92;;;7.88;;
67869;SDS011;54673;52.262;6.830;2023-12-14T01:52:34;16.80;;;7.23;;
67869;SDS011;54673;52.262;6.830;2023-12-14T01:54:59;16.55;;;6.82;;
67869;SDS011;54673;52.262;6.830;2023-12-14T01:57:27;13.23;;;5.97;;
67869;SDS011;54673;52.262;6.830;2023-12-14T01:59:53;17.20;;;7.15;;
67869;SDS011;54673;52.262;6.830;2023-12-14T02:02:18;16.17;;;7.00;;
67869;SDS011;54673;52.262;6.830;2023-12-14T02:04:44;15.30;;;6.75;;
67869;SDS011;54673;52.262;6.830;2023-12-14T02:07:10;18.50;;;6.77;;
67869;SDS011;54673;52.262;6.830;2023-12-14T02:09:35;11.40;;;5.47;;
67869;SDS011;54673;52.262;6.830;2023-12-14T02:12:01;15.00;;;6.57;;
67869;SDS011;54673;52.262;6.830;2023-12-14T02:14:26;18.00;;;8.27;;
67869;SDS011;54673;52.262;6.830;2023-12-14T02:16:52;15.93;;;6.83;;
67869;SDS011;54673;52.262;6.830;2023-12-14T02:19:17;19.48;;;7.82;;
67869;SDS011;54673;52.262;6.830;2023-12-14T02:21:43;17.37;;;7.23;;
67869;SDS011;54673;52.262;6.830;2023-12-14T02:24:09;15.13;;;6.43;;
67869;SDS011;54673;52.262;6.830;2023-12-14T02:26:34;20.40;;;7.93;;
67869;SDS011;54673;52.262;6.830;2023-12-14T02:29:00;18.27;;;7.37;;
67869;SDS011;54673;52.262;6.830;2023-12-14T02:31:25;17.65;;;7.43;;
67869;SDS011;54673;52.262;6.830;2023-12-14T02:33:51;15.43;;;7.10;;
67869;SDS011;54673;52.262;6.830;2023-12-14T02:36:16;12.70;;;6.67;;
67869;SDS011;54673;52.262;6.830;2023-12-14T02:38:42;16.70;;;7.95;;
67869;SDS011;54673;52.262;6.830;2023-12-14T02:41:08;15.43;;;6.63;;
67869;SDS011;54673;52.262;6.830;2023-12-14T02:43:35;16.87;;;7.00;;
67869;SDS011;54673;52.262;6.830;2023-12-14T02:46:00;20.60;;;7.50;;
67869;SDS011;54673;52.262;6.830;2023-12-14T02:48:27;16.33;;;7.33;;
67869;SDS011;54673;52.262;6.830;2023-12-14T02:50:54;16.02;;;7.15;;
67869;SDS011;54673;52.262;6.830;2023-12-14T02:53:20;17.70;;;7.70;;
67869;SDS011;54673;52.262;6.830;2023-12-14T02:55:45;16.08;;;7.18;;
67869;SDS011;54673;52.262;6.830;2023-12-14T02:58:11;14.43;;;6.00;;
67869;SDS011;54673;52.262;6.830;2023-12-14T03:00:37;17.75;;;7.07;;
67869;SDS011;54673;52.262;6.830;2023-12-14T03:03:02;13.37;;;6.03;;
67869;SDS011;54673;52.262;6.830;2023-12-14T03:05:28;15.00;;;6.73;;
67869;SDS011;54673;52.262;6.830;2023-12-14T03:07:53;15.27;;;6.88;;
67869;SDS011;54673;52.262;6.830;2023-12-14T03:10:19;15.83;;;6.60;;
67869;SDS011;54673;52.262;6.830;2023-12-14T03:12:44;14.83;;;6.53;;
67869;SDS011;54673;52.262;6.830;2023-12-14T03:15:10;16.50;;;7.28;;
67869;SDS011;54673;52.262;6.830;2023-12-14T03:17:35;14.83;;;6.43;;
67869;SDS011;54673;52.262;6.830;2023-12-14T03:20:01;14.13;;;6.47;;
67869;SDS011;54673;52.262;6.830;2023-12-14T03:22:28;16.92;;;6.97;;
67869;SDS011;54673;52.262;6.830;2023-12-14T03:24:54;14.33;;;6.87;;
67869;SDS011;54673;52.262;6.830;2023-12-14T03:27:20;15.60;;;6.43;;
67869;SDS011;54673;52.262;6.830;2023-12-14T03:29:47;18.70;;;6.80;;
67869;SDS011;54673;52.262;6.830;2023-12-14T03:32:13;13.23;;;6.90;;
67869;SDS011;54673;52.262;6.830;2023-12-14T03:34:38;14.80;;;6.47;;
67869;SDS011;54673;52.262;6.830;2023-12-14T03:37:04;11.97;;;5.57;;
67869;SDS011;54673;52.262;6.830;2023-12-14T03:39:29;12.57;;;6.07;;
67869;SDS011;54673;52.262;6.830;2023-12-14T03:41:55;15.43;;;6.90;;
67869;SDS011;54673;52.262;6.830;2023-12-14T03:44:20;17.33;;;7.72;;
67869;SDS011;54673;52.262;6.830;2023-12-14T03:46:46;17.23;;;6.75;;
67869;SDS011;54673;52.262;6.830;2023-12-14T03:49:12;17.63;;;7.37;;
67869;SDS011;54673;52.262;6.830;2023-12-14T03:51:37;12.82;;;6.05;;
67869;SDS011;54673;52.262;6.830;2023-12-14T03:54:03;15.53;;;6.80;;
67869;SDS011;54673;52.262;6.830;2023-12-14T03:56:28;16.20;;;7.30;;
67869;SDS011;54673;52.262;6.830;2023-12-14T03:58:54;15.30;;;6.80;;
67869;SDS011;54673;52.262;6.830;2023-12-14T04:01:22;14.33;;;6.90;;
67869;SDS011;54673;52.262;6.830;2023-12-14T04:03:47;13.48;;;6.15;;
67869;SDS011;54673;52.262;6.830;2023-12-14T04:06:13;14.30;;;5.73;;
67869;SDS011;54673;52.262;6.830;2023-12-14T04:08:39;13.27;;;6.13;;
67869;SDS011;54673;52.262;6.830;2023-12-14T04:11:06;14.13;;;6.17;;
67869;SDS011;54673;52.262;6.830;2023-12-14T04:13:32;12.85;;;5.65;;
67869;SDS011;54673;52.262;6.830;2023-12-14T04:15:57;15.75;;;7.00;;
67869;SDS011;54673;52.262;6.830;2023-12-14T04:18:23;13.77;;;6.80;;
67869;SDS011;54673;52.262;6.830;2023-12-14T04:20:49;12.88;;;6.32;;
67869;SDS011;54673;52.262;6.830;2023-12-14T04:23:15;12.37;;;5.77;;
67869;SDS011;54673;52.262;6.830;2023-12-14T04:25:41;12.40;;;6.68;;
67869;SDS011;54673;52.262;6.830;2023-12-14T04:28:06;16.27;;;7.00;;
67869;SDS011;54673;52.262;6.830;2023-12-14T04:30:32;13.00;;;5.77;;
67869;SDS011;54673;52.262;6.830;2023-12-14T04:32:57;11.55;;;5.68;;
67869;SDS011;54673;52.262;6.830;2023-12-14T04:35:23;13.50;;;5.97;;
67869;SDS011;54673;52.262;6.830;2023-12-14T04:37:49;13.03;;;5.63;;
67869;SDS011;54673;52.262;6.830;2023-12-14T04:40:14;12.95;;;5.68;;
67869;SDS011;54673;52.262;6.830;2023-12-14T04:42:40;12.30;;;5.57;;
67869;SDS011;54673;52.262;6.830;2023-12-14T04:45:06;11.47;;;5.27;;
67869;SDS011;54673;52.262;6.830;2023-12-14T04:47:34;10.35;;;5.22;;
67869;SDS011;54673;52.262;6.830;2023-12-14T04:50:00;12.48;;;5.75;;
67869;SDS011;54673;52.262;6.830;2023-12-14T04:52:26;13.68;;;6.80;;
67869;SDS011;54673;52.262;6.830;2023-12-14T04:54:51;13.33;;;6.80;;
67869;SDS011;54673;52.262;6.830;2023-12-14T04:57:17;11.73;;;6.00;;
67869;SDS011;54673;52.262;6.830;2023-12-14T04:59:43;12.05;;;5.57;;
67869;SDS011;54673;52.262;6.830;2023-12-14T05:02:08;8.87;;;4.80;;
67869;SDS011;54673;52.262;6.830;2023-12-14T05:04:34;11.48;;;5.43;;
67869;SDS011;54673;52.262;6.830;2023-12-14T05:07:00;11.97;;;5.60;;
67869;SDS011;54673;52.262;6.830;2023-12-14T05:09:25;13.60;;;5.77;;
67869;SDS011;54673;52.262;6.830;2023-12-14T05:11:51;13.38;;;6.15;;
67869;SDS011;54673;52.262;6.830;2023-12-14T05:14:17;13.30;;;5.90;;
67869;SDS011;54673;52.262;6.830;2023-12-14T05:16:43;13.07;;;5.63;;
67869;SDS011;54673;52.262;6.830;2023-12-14T05:19:08;13.38;;;6.47;;
67869;SDS011;54673;52.262;6.830;2023-12-14T05:21:34;12.07;;;5.22;;
67869;SDS011;54673;52.262;6.830;2023-12-14T05:24:00;15.27;;;6.13;;
67869;SDS011;54673;52.262;6.830;2023-12-14T05:26:25;12.20;;;5.68;;
67869;SDS011;54673;52.262;6.830;2023-12-14T05:28:51;13.47;;;6.17;;
67869;SDS011;54673;52.262;6.830;2023-12-14T05:31:17;12.43;;;6.28;;
67869;SDS011;54673;52.262;6.830;2023-12-14T05:33:43;13.20;;;6.20;;
67869;SDS011;54673;52.262;6.830;2023-12-14T05:36:08;12.98;;;5.75;;
67869;SDS011;54673;52.262;6.830;2023-12-14T05:38:36;12.07;;;5.50;;
67869;SDS011;54673;52.262;6.830;2023-12-14T05:41:03;11.43;;;5.40;;
67869;SDS011;54673;52.262;6.830;2023-12-14T05:43:29;12.10;;;5.57;;
67869;SDS011;54673;52.262;6.830;2023-12-14T05:45:54;15.20;;;6.90;;
67869;SDS011;54673;52.262;6.830;2023-12-14T05:48:20;11.33;;;5.10;;
67869;SDS011;54673;52.262;6.830;2023-12-14T05:50:45;13.55;;;5.75;;
67869;SDS011;54673;52.262;6.830;2023-12-14T05:53:11;13.75;;;6.00;;
67869;SDS011;54673;52.262;6.830;2023-12-14T05:55:37;11.23;;;5.57;;
67869;SDS011;54673;52.262;6.830;2023-12-14T05:58:05;12.45;;;5.35;;
67869;SDS011;54673;52.262;6.830;2023-12-14T06:00:30;11.40;;;5.77;;
67869;SDS011;54673;52.262;6.830;2023-12-14T06:02:56;10.90;;;5.63;;
67869;SDS011;54673;52.262;6.830;2023-12-14T06:05:22;13.60;;;6.20;;
67869;SDS011;54673;52.262;6.830;2023-12-14T06:07:48;13.02;;;5.85;;
67869;SDS011;54673;52.262;6.830;2023-12-14T06:10:13;11.63;;;5.70;;
67869;SDS011;54673;52.262;6.830;2023-12-14T06:12:39;13.17;;;5.30;;
67869;SDS011;54673;52.262;6.830;2023-12-14T06:15:04;12.18;;;5.85;;
67869;SDS011;54673;52.262;6.830;2023-12-14T06:17:31;12.80;;;6.13;;
67869;SDS011;54673;52.262;6.830;2023-12-14T06:19:58;10.63;;;5.22;;
67869;SDS011;54673;52.262;6.830;2023-12-14T06:22:24;12.05;;;5.15;;
67869;SDS011;54673;52.262;6.830;2023-12-14T06:24:51;12.67;;;6.00;;
67869;SDS011;54673;52.262;6.830;2023-12-14T06:27:17;12.48;;;5.70;;
67869;SDS011;54673;52.262;6.830;2023-12-14T06:29:42;14.77;;;5.97;;
67869;SDS011;54673;52.262;6.830;2023-12-14T06:32:08;12.50;;;6.03;;
67869;SDS011;54673;52.262;6.830;2023-12-14T06:34:34;10.33;;;5.73;;
67869;SDS011;54673;52.262;6.830;2023-12-14T06:36:59;12.63;;;5.15;;
67869;SDS011;54673;52.262;6.830;2023-12-14T06:39:26;12.20;;;5.57;;
67869;SDS011;54673;52.262;6.830;2023-12-14T06:41:53;11.15;;;5.22;;
67869;SDS011;54673;52.262;6.830;2023-12-14T06:44:18;15.48;;;5.72;;
67869;SDS011;54673;52.262;6.830;2023-12-14T06:46:44;12.00;;;5.30;;
67869;SDS011;54673;52.262;6.830;2023-12-14T06:49:09;9.75;;;5.30;;
67869;SDS011;54673;52.262;6.830;2023-12-14T06:51:35;11.23;;;5.60;;
67869;SDS011;54673;52.262;6.830;2023-12-14T06:54:01;15.18;;;5.70;;
67869;SDS011;54673;52.262;6.830;2023-12-14T06:56:27;11.73;;;5.63;;
67869;SDS011;54673;52.262;6.830;2023-12-14T06:58:52;12.98;;;6.50;;
67869;SDS011;54673;52.262;6.830;2023-12-14T07:01:18;12.30;;;6.30;;
67869;SDS011;54673;52.262;6.830;2023-12-14T07:03:44;12.35;;;6.07;;
67869;SDS011;54673;52.262;6.830;2023-12-14T07:06:13;10.68;;;5.38;;
67869;SDS011;54673;52.262;6.830;2023-12-14T07:08:40;9.30;;;4.72;;
67869;SDS011;54673;52.262;6.830;2023-12-14T07:11:06;11.13;;;5.47;;
67869;SDS011;54673;52.262;6.830;2023-12-14T07:13:33;10.23;;;4.97;;
67869;SDS011;54673;52.262;6.830;2023-12-14T07:16:01;12.00;;;5.65;;
67869;SDS011;54673;52.262;6.830;2023-12-14T07:18:36;12.80;;;5.53;;
67869;SDS011;54673;52.262;6.830;2023-12-14T07:21:02;12.25;;;5.45;;
67869;SDS011;54673;52.262;6.830;2023-12-14T07:23:28;12.30;;;6.00;;
67869;SDS011;54673;52.262;6.830;2023-12-14T07:25:54;12.82;;;5.35;;
67869;SDS011;54673;52.262;6.830;2023-12-14T07:28:20;12.43;;;5.60;;
67869;SDS011;54673;52.262;6.830;2023-12-14T07:30:45;11.20;;;5.93;;
67869;SDS011;54673;52.262;6.830;2023-12-14T07:33:11;8.13;;;4.33;;
67869;SDS011;54673;52.262;6.830;2023-12-14T07:35:37;13.77;;;6.38;;
67869;SDS011;54673;52.262;6.830;2023-12-14T07:38:03;14.60;;;6.80;;
67869;SDS011;54673;52.262;6.830;2023-12-14T07:40:28;11.45;;;5.93;;
67869;SDS011;54673;52.262;6.830;2023-12-14T07:42:54;10.60;;;5.30;;
67869;SDS011;54673;52.262;6.830;2023-12-14T07:45:20;11.82;;;4.85;;
67869;SDS011;54673;52.262;6.830;2023-12-14T07:47:45;10.80;;;5.17;;
67869;SDS011;54673;52.262;6.830;2023-12-14T07:50:11;12.63;;;6.75;;
67869;SDS011;54673;52.262;6.830;2023-12-14T07:52:37;12.30;;;6.40;;
67869;SDS011;54673;52.262;6.830;2023-12-14T07:55:04;11.05;;;5.22;;
67869;SDS011;54673;52.262;6.830;2023-12-14T07:57:31;13.27;;;6.87;;
67869;SDS011;54673;52.262;6.830;2023-12-14T07:59:56;11.45;;;6.00;;
67869;SDS011;54673;52.262;6.830;2023-12-14T08:02:22;11.83;;;6.03;;
67869;SDS011;54673;52.262;6.830;2023-12-14T08:04:48;10.75;;;5.90;;
67869;SDS011;54673;52.262;6.830;2023-12-14T08:07:13;9.90;;;4.77;;
67869;SDS011;54673;52.262;6.830;2023-12-14T08:09:39;13.15;;;7.13;;
67869;SDS011;54673;52.262;6.830;2023-12-14T08:12:05;10.60;;;5.63;;
67869;SDS011;54673;52.262;6.830;2023-12-14T08:14:34;9.15;;;5.05;;
67869;SDS011;54673;52.262;6.830;2023-12-14T08:17:03;11.37;;;5.57;;
67869;SDS011;54673;52.262;6.830;2023-12-14T08:19:29;13.18;;;5.78;;
67869;SDS011;54673;52.262;6.830;2023-12-14T08:21:55;10.53;;;5.67;;
67869;SDS011;54673;52.262;6.830;2023-12-14T08:24:20;10.30;;;4.88;;
67869;SDS011;54673;52.262;6.830;2023-12-14T08:26:46;9.67;;;5.07;;
67869;SDS011;54673;52.262;6.830;2023-12-14T08:29:12;10.43;;;5.40;;
67869;SDS011;54673;52.262;6.830;2023-12-14T08:31:37;10.02;;;4.88;;
67869;SDS011;54673;52.262;6.830;2023-12-14T08:34:03;12.50;;;5.37;;
67869;SDS011;54673;52.262;6.830;2023-12-14T08:36:29;11.57;;;6.43;;
67869;SDS011;54673;52.262;6.830;2023-12-14T08:38:54;9.80;;;4.97;;
67869;SDS011;54673;52.262;6.830;2023-12-14T08:41:20;14.20;;;6.55;;
67869;SDS011;54673;52.262;6.830;2023-12-14T08:43:45;10.40;;;5.47;;
67869;SDS011;54673;52.262;6.830;2023-12-14T08:46:11;11.80;;;5.93;;
67869;SDS011;54673;52.262;6.830;2023-12-14T08:48:37;14.33;;;5.83;;
67869;SDS011;54673;52.262;6.830;2023-12-14T08:51:03;15.07;;;6.70;;
67869;SDS011;54673;52.262;6.830;2023-12-14T08:53:29;12.45;;;6.05;;
67869;SDS011;54673;52.262;6.830;2023-12-14T08:55:55;11.52;;;6.43;;
67869;SDS011;54673;52.262;6.830;2023-12-14T08:58:20;10.77;;;5.97;;
67869;SDS011;54673;52.262;6.830;2023-12-14T09:00:46;13.03;;;6.87;;
67869;SDS011;54673;52.262;6.830;2023-12-14T09:03:11;13.15;;;6.35;;
67869;SDS011;54673;52.262;6.830;2023-12-14T09:05:40;10.70;;;5.90;;
67869;SDS011;54673;52.262;6.830;2023-12-14T09:08:09;11.27;;;5.95;;
67869;SDS011;54673;52.262;6.830;2023-12-14T09:10:34;11.00;;;6.10;;
67869;SDS011;54673;52.262;6.830;2023-12-14T09:13:00;12.05;;;5.80;;
67869;SDS011;54673;52.262;6.830;2023-12-14T09:15:29;12.23;;;5.82;;
67869;SDS011;54673;52.262;6.830;2023-12-14T09:17:56;11.80;;;5.53;;
67869;SDS011;54673;52.262;6.830;2023-12-14T09:20:21;13.37;;;6.37;;
67869;SDS011;54673;52.262;6.830;2023-12-14T09:22:47;11.20;;;5.57;;
67869;SDS011;54673;52.262;6.830;2023-12-14T09:25:12;15.48;;;7.80;;
67869;SDS011;54673;52.262;6.830;2023-12-14T09:27:38;10.63;;;5.57;;
67869;SDS011;54673;52.262;6.830;2023-12-14T09:30:04;11.23;;;5.43;;
67869;SDS011;54673;52.262;6.830;2023-12-14T09:32:30;11.00;;;5.43;;
67869;SDS011;54673;52.262;6.830;2023-12-14T09:34:55;10.20;;;5.43;;
67869;SDS011;54673;52.262;6.830;2023-12-14T09:37:21;15.57;;;6.90;;
67869;SDS011;54673;52.262;6.830;2023-12-14T09:39:47;13.95;;;6.25;;
67869;SDS011;54673;52.262;6.830;2023-12-14T09:42:13;11.95;;;5.80;;
67869;SDS011;54673;52.262;6.830;2023-12-14T09:44:43;11.40;;;5.77;;
67869;SDS011;54673;52.262;6.830;2023-12-14T09:47:09;12.27;;;6.85;;
67869;SDS011;54673;52.262;6.830;2023-12-14T09:49:34;11.47;;;5.70;;
67869;SDS011;54673;52.262;6.830;2023-12-14T09:52:02;12.73;;;6.07;;
67869;SDS011;54673;52.262;6.830;2023-12-14T09:54:27;11.68;;;5.80;;
67869;SDS011;54673;52.262;6.830;2023-12-14T09:56:54;11.20;;;6.37;;
67869;SDS011;54673;52.262;6.830;2023-12-14T09:59:20;10.20;;;5.47;;
67869;SDS011;54673;52.262;6.830;2023-12-14T10:01:46;12.63;;;6.27;;
67869;SDS011;54673;52.262;6.830;2023-12-14T10:04:13;12.18;;;6.18;;
67869;SDS011;54673;52.262;6.830;2023-12-14T10:06:40;13.88;;;6.47;;
67869;SDS011;54673;52.262;6.830;2023-12-14T10:09:07;11.10;;;5.47;;
67869;SDS011;54673;52.262;6.830;2023-12-14T10:11:44;13.43;;;5.90;;
67869;SDS011;54673;52.262;6.830;2023-12-14T10:14:20;14.43;;;6.20;;
67869;SDS011;54673;52.262;6.830;2023-12-14T10:16:47;29.80;;;12.27;;
67869;SDS011;54673;52.262;6.830;2023-12-14T10:19:14;14.25;;;7.25;;
67869;SDS011;54673;52.262;6.830;2023-12-14T10:21:41;14.18;;;7.47;;
67869;SDS011;54673;52.262;6.830;2023-12-14T10:24:07;11.90;;;5.87;;
67869;SDS011;54673;52.262;6.830;2023-12-14T10:26:32;13.25;;;6.68;;
67869;SDS011;54673;52.262;6.830;2023-12-14T10:28:58;10.03;;;5.57;;
67869;SDS011;54673;52.262;6.830;2023-12-14T10:31:24;11.67;;;5.73;;
67869;SDS011;54673;52.262;6.830;2023-12-14T10:33:51;12.15;;;5.78;;
67869;SDS011;54673;52.262;6.830;2023-12-14T10:36:20;9.68;;;5.32;;
67869;SDS011;54673;52.262;6.830;2023-12-14T10:38:50;9.80;;;5.33;;
67869;SDS011;54673;52.262;6.830;2023-12-14T10:41:17;9.32;;;4.78;;
67869;SDS011;54673;52.262;6.830;2023-12-14T10:43:44;12.73;;;5.07;;
67869;SDS011;54673;52.262;6.830;2023-12-14T10:46:12;10.88;;;5.82;;
67869;SDS011;54673;52.262;6.830;2023-12-14T10:48:39;10.70;;;5.30;;
67869;SDS011;54673;52.262;6.830;2023-12-14T10:51:09;9.10;;;4.80;;
67869;SDS011;54673;52.262;6.830;2023-12-14T10:53:37;11.02;;;5.38;;
67869;SDS011;54673;52.262;6.830;2023-12-14T10:56:04;12.13;;;5.47;;
67869;SDS011;54673;52.262;6.830;2023-12-14T10:58:45;11.20;;;5.50;;
67869;SDS011;54673;52.262;6.830;2023-12-14T11:01:13;9.48;;;5.18;;
67869;SDS011;54673;52.262;6.830;2023-12-14T11:03:43;11.63;;;4.87;;
67869;SDS011;54673;52.262;6.830;2023-12-14T11:09:03;9.82;;;5.18;;
67869;SDS011;54673;52.262;6.830;2023-12-14T11:14:21;11.73;;;5.05;;
67869;SDS011;54673;52.262;6.830;2023-12-14T11:16:47;10.70;;;4.77;;
67869;SDS011;54673;52.262;6.830;2023-12-14T11:19:25;10.07;;;4.53;;
67869;SDS011;54673;52.262;6.830;2023-12-14T11:24:22;9.95;;;5.03;;
67869;SDS011;54673;52.262;6.830;2023-12-14T11:26:53;8.80;;;4.43;;
67869;SDS011;54673;52.262;6.830;2023-12-14T11:29:19;8.53;;;4.50;;
67869;SDS011;54673;52.262;6.830;2023-12-14T11:31:47;7.78;;;4.28;;
67869;SDS011;54673;52.262;6.830;2023-12-14T11:34:14;11.07;;;5.75;;
67869;SDS011;54673;52.262;6.830;2023-12-14T11:36:48;9.38;;;4.43;;
67869;SDS011;54673;52.262;6.830;2023-12-14T11:39:19;6.72;;;3.97;;
67869;SDS011;54673;52.262;6.830;2023-12-14T11:42:02;7.97;;;4.30;;
67869;SDS011;54673;52.262;6.830;2023-12-14T11:44:28;9.02;;;4.43;;
67869;SDS011;54673;52.262;6.830;2023-12-14T11:47:00;7.88;;;4.43;;
67869;SDS011;54673;52.262;6.830;2023-12-14T11:49:31;8.95;;;4.88;;
67869;SDS011;54673;52.262;6.830;2023-12-14T11:51:57;10.95;;;4.90;;
67869;SDS011;54673;52.262;6.830;2023-12-14T11:54:27;11.83;;;4.80;;
67869;SDS011;54673;52.262;6.830;2023-12-14T11:56:56;8.98;;;4.00;;
67869;SDS011;54673;52.262;6.830;2023-12-14T11:59:22;9.47;;;4.40;;
67869;SDS011;54673;52.262;6.830;2023-12-14T12:01:57;7.40;;;3.70;;
67869;SDS011;54673;52.262;6.830;2023-12-14T12:04:28;9.40;;;3.97;;
67869;SDS011;54673;52.262;6.830;2023-12-14T12:06:59;8.43;;;4.67;;
67869;SDS011;54673;52.262;6.830;2023-12-14T12:09:36;8.70;;;4.57;;
67869;SDS011;54673;52.262;6.830;2023-12-14T12:12:09;7.82;;;4.57;;
67869;SDS011;54673;52.262;6.830;2023-12-14T12:14:36;8.27;;;4.43;;
67869;SDS011;54673;52.262;6.830;2023-12-14T12:17:05;9.88;;;4.68;;
67869;SDS011;54673;52.262;6.830;2023-12-14T12:19:34;8.27;;;3.77;;
67869;SDS011;54673;52.262;6.830;2023-12-14T12:22:02;10.48;;;4.13;;
67869;SDS011;54673;52.262;6.830;2023-12-14T12:24:29;8.68;;;4.30;;
67869;SDS011;54673;52.262;6.830;2023-12-14T12:26:55;6.95;;;3.75;;
67869;SDS011;54673;52.262;6.830;2023-12-14T12:29:21;13.48;;;5.20;;
67869;SDS011;54673;52.262;6.830;2023-12-14T12:31:47;12.03;;;5.43;;
67869;SDS011;54673;52.262;6.830;2023-12-14T12:34:13;11.15;;;4.95;;
67869;SDS011;54673;52.262;6.830;2023-12-14T12:36:38;8.63;;;4.37;;
67869;SDS011;54673;52.262;6.830;2023-12-14T12:39:04;11.48;;;5.47;;
67869;SDS011;54673;52.262;6.830;2023-12-14T12:41:31;11.40;;;4.53;;
67869;SDS011;54673;52.262;6.830;2023-12-14T12:43:58;11.43;;;5.65;;
67869;SDS011;54673;52.262;6.830;2023-12-14T12:46:30;10.60;;;5.07;;
67869;SDS011;54673;52.262;6.830;2023-12-14T12:49:00;12.98;;;5.22;;
67869;SDS011;54673;52.262;6.830;2023-12-14T12:51:26;11.40;;;5.30;;
67869;SDS011;54673;52.262;6.830;2023-12-14T12:53:52;10.30;;;4.90;;
67869;SDS011;54673;52.262;6.830;2023-12-14T12:56:19;8.88;;;4.18;;
67869;SDS011;54673;52.262;6.830;2023-12-14T12:58:44;10.30;;;4.03;;
67869;SDS011;54673;52.262;6.830;2023-12-14T13:01:10;10.38;;;4.90;;
67869;SDS011;54673;52.262;6.830;2023-12-14T13:03:36;14.52;;;5.75;;
67869;SDS011;54673;52.262;6.830;2023-12-14T13:06:02;12.07;;;5.33;;
67869;SDS011;54673;52.262;6.830;2023-12-14T13:08:28;15.43;;;6.38;;
67869;SDS011;54673;52.262;6.830;2023-12-14T13:10:53;11.40;;;4.90;;
67869;SDS011;54673;52.262;6.830;2023-12-14T13:13:19;12.95;;;5.47;;
67869;SDS011;54673;52.262;6.830;2023-12-14T13:15:44;8.73;;;4.13;;
67869;SDS011;54673;52.262;6.830;2023-12-14T13:18:10;11.57;;;5.30;;
67869;SDS011;54673;52.262;6.830;2023-12-14T13:20:35;11.93;;;5.38;;
67869;SDS011;54673;52.262;6.830;2023-12-14T13:23:01;10.03;;;4.30;;
67869;SDS011;54673;52.262;6.830;2023-12-14T13:25:27;14.63;;;6.00;;
67869;SDS011;54673;52.262;6.830;2023-12-14T13:27:53;13.03;;;5.20;;
67869;SDS011;54673;52.262;6.830;2023-12-14T13:30:19;9.40;;;4.20;;
67869;SDS011;54673;52.262;6.830;2023-12-14T13:32:47;11.30;;;5.07;;
67869;SDS011;54673;52.262;6.830;2023-12-14T13:35:13;11.77;;;4.93;;
67869;SDS011;54673;52.262;6.830;2023-12-14T13:37:38;13.53;;;5.03;;
67869;SDS011;54673;52.262;6.830;2023-12-14T13:40:04;13.45;;;5.90;;
67869;SDS011;54673;52.262;6.830;2023-12-14T13:42:31;11.33;;;5.20;;
67869;SDS011;54673;52.262;6.830;2023-12-14T13:44:56;13.80;;;5.15;;
67869;SDS011;54673;52.262;6.830;2023-12-14T13:47:22;12.20;;;4.93;;
67869;SDS011;54673;52.262;6.830;2023-12-14T13:49:47;9.20;;;4.37;;
67869;SDS011;54673;52.262;6.830;2023-12-14T13:52:13;11.20;;;5.22;;
67869;SDS011;54673;52.262;6.830;2023-12-14T13:54:39;12.20;;;5.33;;
67869;SDS011;54673;52.262;6.830;2023-12-14T13:57:04;14.67;;;4.93;;
67869;SDS011;54673;52.262;6.830;2023-12-14T13:59:30;9.65;;;4.57;;
67869;SDS011;54673;52.262;6.830;2023-12-14T14:01:55;14.03;;;4.90;;
67869;SDS011;54673;52.262;6.830;2023-12-14T14:04:21;13.38;;;5.15;;
67869;SDS011;54673;52.262;6.830;2023-12-14T14:06:46;11.73;;;4.20;;
67869;SDS011;54673;52.262;6.830;2023-12-14T14:09:12;11.37;;;5.00;;
67869;SDS011;54673;52.262;6.830;2023-12-14T14:11:39;9.95;;;4.75;;
67869;SDS011;54673;52.262;6.830;2023-12-14T14:14:10;12.63;;;4.93;;
67869;SDS011;54673;52.262;6.830;2023-12-14T14:16:36;12.48;;;4.90;;
67869;SDS011;54673;52.262;6.830;2023-12-14T14:19:02;9.68;;;4.13;;
67869;SDS011;54673;52.262;6.830;2023-12-14T14:21:27;13.47;;;5.00;;
67869;SDS011;54673;52.262;6.830;2023-12-14T14:23:53;11.48;;;5.03;;
67869;SDS011;54673;52.262;6.830;2023-12-14T14:26:19;10.17;;;4.70;;
67869;SDS011;54673;52.262;6.830;2023-12-14T14:28:45;10.80;;;4.20;;
67869;SDS011;54673;52.262;6.830;2023-12-14T14:31:11;13.50;;;5.30;;
67869;SDS011;54673;52.262;6.830;2023-12-14T14:33:37;14.20;;;5.47;;
67869;SDS011;54673;52.262;6.830;2023-12-14T14:36:02;12.40;;;4.57;;
67869;SDS011;54673;52.262;6.830;2023-12-14T14:38:30;10.00;;;4.93;;